sensor_id;sensor_type;location;lat;lon;timestamp;pressure;altitude;pressure_sealevel;temperature;humidity
27429;BME280;14881;48.092;11.574;2023-01-20T00:01:37;94653.00;;;-2.42;100.00
27429;BME280;14881;48.092;11.574;2023-01-20T00:04:09;94656.94;;;-2.45;100.00
27429;BME280;14881;48.092;11.574;2023-01-20T00:06:37;94661.44;;;-2.46;100.00
27429;BME280;14881;48.092;11.574;2023-01-20T00:09:05;94660.28;;;-2.50;100.00
27429;BME280;14881;48.092;11.574;2023-01-20T00:11:34;94660.16;;;-2.43;100.00
27429;BME280;14881;48.092;11.574;2023-01-20T00:14:02;94653.56;;;-2.52;100.00
27429;BME280;14881;48.092;11.574;2023-01-20T00:16:30;94652.28;;;-2.50;100.00
27429;BME280;14881;48.092;11.574;2023-01-20T00:18:58;94659.81;;;-2.47;100.00
27429;BME280;14881;48.092;11.574;2023-01-20T00:21:26;94657.25;;;-2.41;100.00
27429;BME280;14881;48.092;11.574;2023-01-20T00:23:56;94670.22;;;-2.45;100.00
27429;BME280;14881;48.092;11.574;2023-01-20T00:26:24;94665.47;;;-2.55;100.00
27429;BME280;14881;48.092;11.574;2023-01-20T00:28:54;94669.88;;;-2.49;100.00
27429;BME280;14881;48.092;11.574;2023-01-20T00:31:24;94668.69;;;-2.53;100.00
27429;BME280;14881;48.092;11.574;2023-01-20T00:33:54;94668.94;;;-2.54;100.00
27429;BME280;14881;48.092;11.574;2023-01-20T00:36:23;94672.06;;;-2.46;100.00
27429;BME280;14881;48.092;11.574;2023-01-20T00:38:51;94669.63;;;-2.47;100.00
27429;BME280;14881;48.092;11.574;2023-01-20T00:41:19;94673.91;;;-2.46;100.00
27429;BME280;14881;48.092;11.574;2023-01-20T00:43:47;94675.06;;;-2.42;100.00
27429;BME280;14881;48.092;11.574;2023-01-20T00:46:16;94671.25;;;-2.46;100.00
27429;BME280;14881;48.092;11.574;2023-01-20T00:48:44;94675.31;;;-2.43;100.00
27429;BME280;14881;48.092;11.574;2023-01-20T00:51:12;94681.31;;;-2.36;100.00
27429;BME280;14881;48.092;11.574;2023-01-20T00:53:40;94677.03;;;-2.37;100.00
27429;BME280;14881;48.092;11.574;2023-01-20T00:56:07;94683.75;;;-2.35;100.00
27429;BME280;14881;48.092;11.574;2023-01-20T00:58:35;94689.66;;;-2.33;100.00
27429;BME280;14881;48.092;11.574;2023-01-20T01:01:03;94678.19;;;-2.33;100.00
27429;BME280;14881;48.092;11.574;2023-01-20T01:03:33;94686.06;;;-2.38;100.00
27429;BME280;14881;48.092;11.574;2023-01-20T01:06:06;94683.97;;;-2.36;100.00
27429;BME280;14881;48.092;11.574;2023-01-20T01:08:34;94689.88;;;-2.34;100.00
27429;BME280;14881;48.092;11.574;2023-01-20T01:11:03;94687.22;;;-2.34;100.00
27429;BME280;14881;48.092;11.574;2023-01-20T01:13:31;94683.63;;;-2.40;100.00
27429;BME280;14881;48.092;11.574;2023-01-20T01:15:59;94694.38;;;-2.35;100.00
27429;BME280;14881;48.092;11.574;2023-01-20T01:18:27;94691.38;;;-2.38;100.00
27429;BME280;14881;48.092;11.574;2023-01-20T01:20:56;94699.56;;;-2.40;100.00
27429;BME280;14881;48.092;11.574;2023-01-20T01:23:24;94700.38;;;-2.39;100.00
27429;BME280;14881;48.092;11.574;2023-01-20T01:25:51;94702.72;;;-2.43;100.00
27429;BME280;14881;48.092;11.574;2023-01-20T01:28:19;94704.31;;;-2.42;100.00
27429;BME280;14881;48.092;11.574;2023-01-20T01:30:47;94702.34;;;-2.47;100.00
27429;BME280;14881;48.092;11.574;2023-01-20T01:33:14;94708.13;;;-2.50;100.00
27429;BME280;14881;48.092;11.574;2023-01-20T01:35:42;94705.81;;;-2.46;100.00
27429;BME280;14881;48.092;11.574;2023-01-20T01:38:11;94709.16;;;-2.51;100.00
27429;BME280;14881;48.092;11.574;2023-01-20T01:40:39;94712.50;;;-2.55;100.00
27429;BME280;14881;48.092;11.574;2023-01-20T01:43:15;94715.38;;;-2.57;100.00
27429;BME280;14881;48.092;11.574;2023-01-20T01:45:47;94709.72;;;-2.60;100.00
27429;BME280;14881;48.092;11.574;2023-01-20T01:48:15;94713.88;;;-2.64;100.00
27429;BME280;14881;48.092;11.574;2023-01-20T01:50:47;94703.47;;;-2.66;100.00
27429;BME280;14881;48.092;11.574;2023-01-20T01:53:21;94703.47;;;-2.66;100.00
27429;BME280;14881;48.092;11.574;2023-01-20T01:55:52;94703.69;;;-2.67;100.00
27429;BME280;14881;48.092;11.574;2023-01-20T01:58:23;94704.28;;;-2.65;100.00
27429;BME280;14881;48.092;11.574;2023-01-20T02:00:54;94712.47;;;-2.67;100.00
27429;BME280;14881;48.092;11.574;2023-01-20T02:03:22;94706.00;;;-2.71;100.00
27429;BME280;14881;48.092;11.574;2023-01-20T02:05:51;94717.44;;;-2.70;100.00
27429;BME280;14881;48.092;11.574;2023-01-20T02:08:21;94711.41;;;-2.77;100.00
27429;BME280;14881;48.092;11.574;2023-01-20T02:10:49;94708.84;;;-2.84;100.00
27429;BME280;14881;48.092;11.574;2023-01-20T02:13:16;94717.03;;;-2.86;100.00
27429;BME280;14881;48.092;11.574;2023-01-20T02:15:51;94718.41;;;-2.95;100.00
27429;BME280;14881;48.092;11.574;2023-01-20T02:18:31;94716.78;;;-2.96;100.00
27429;BME280;14881;48.092;11.574;2023-01-20T02:21:32;94718.34;;;-3.06;100.00
27429;BME280;14881;48.092;11.574;2023-01-20T02:27:32;94714.56;;;-2.99;100.00
27429;BME280;14881;48.092;11.574;2023-01-20T02:30:28;94717.91;;;-3.03;100.00
27429;BME280;14881;48.092;11.574;2023-01-20T02:33:07;94727.72;;;-3.04;100.00
27429;BME280;14881;48.092;11.574;2023-01-20T02:35:39;94726.00;;;-2.98;100.00
27429;BME280;14881;48.092;11.574;2023-01-20T02:38:14;94727.03;;;-2.99;100.00
27429;BME280;14881;48.092;11.574;2023-01-20T02:40:49;94729.09;;;-3.01;100.00
27429;BME280;14881;48.092;11.574;2023-01-20T02:43:25;94727.84;;;-2.99;100.00
27429;BME280;14881;48.092;11.574;2023-01-20T02:46:02;94730.28;;;-2.97;100.00
27429;BME280;14881;48.092;11.574;2023-01-20T02:48:37;94732.34;;;-2.99;100.00
27429;BME280;14881;48.092;11.574;2023-01-20T02:51:16;94741.34;;;-3.00;100.00
27429;BME280;14881;48.092;11.574;2023-01-20T02:53:49;94738.03;;;-2.96;100.00
27429;BME280;14881;48.092;11.574;2023-01-20T02:56:24;94736.75;;;-2.93;100.00
27429;BME280;14881;48.092;11.574;2023-01-20T02:58:55;94737.00;;;-2.95;100.00
27429;BME280;14881;48.092;11.574;2023-01-20T03:01:28;94735.28;;;-2.89;100.00
27429;BME280;14881;48.092;11.574;2023-01-20T03:04:00;94738.06;;;-2.84;100.00
27429;BME280;14881;48.092;11.574;2023-01-20T03:06:33;94742.72;;;-2.79;100.00
27429;BME280;14881;48.092;11.574;2023-01-20T03:09:06;94741.91;;;-2.80;100.00
27429;BME280;14881;48.092;11.574;2023-01-20T03:11:38;94743.41;;;-2.72;100.00
27429;BME280;14881;48.092;11.574;2023-01-20T03:14:09;94749.09;;;-2.69;100.00
27429;BME280;14881;48.092;11.574;2023-01-20T03:16:38;94750.50;;;-2.66;100.00
27429;BME280;14881;48.092;11.574;2023-01-20T03:19:08;94753.50;;;-2.63;100.00
27429;BME280;14881;48.092;11.574;2023-01-20T03:21:36;94744.63;;;-2.57;100.00
27429;BME280;14881;48.092;11.574;2023-01-20T03:24:05;94746.25;;;-2.56;100.00
27429;BME280;14881;48.092;11.574;2023-01-20T03:26:35;94749.84;;;-2.50;100.00
27429;BME280;14881;48.092;11.574;2023-01-20T03:29:05;94746.38;;;-2.51;100.00
27429;BME280;14881;48.092;11.574;2023-01-20T03:31:37;94754.56;;;-2.52;100.00
27429;BME280;14881;48.092;11.574;2023-01-20T03:34:08;94752.50;;;-2.50;100.00
27429;BME280;14881;48.092;11.574;2023-01-20T03:36:38;94758.63;;;-2.50;100.00
27429;BME280;14881;48.092;11.574;2023-01-20T03:39:06;94763.50;;;-2.47;100.00
27429;BME280;14881;48.092;11.574;2023-01-20T03:41:44;94758.63;;;-2.50;100.00
27429;BME280;14881;48.092;11.574;2023-01-20T03:44:21;94763.13;;;-2.50;100.00
27429;BME280;14881;48.092;11.574;2023-01-20T03:46:52;94761.66;;;-2.46;100.00
27429;BME280;14881;48.092;11.574;2023-01-20T03:49:27;94761.88;;;-2.48;100.00
27429;BME280;14881;48.092;11.574;2023-01-20T03:52:02;94780.03;;;-2.44;100.00
27429;BME280;14881;48.092;11.574;2023-01-20T03:54:36;94778.06;;;-2.49;100.00
27429;BME280;14881;48.092;11.574;2023-01-20T03:57:11;94775.97;;;-2.47;100.00
27429;BME280;14881;48.092;11.574;2023-01-20T03:59:46;94788.34;;;-2.41;100.00
27429;BME280;14881;48.092;11.574;2023-01-20T04:02:14;94785.94;;;-2.42;100.00
27429;BME280;14881;48.092;11.574;2023-01-20T04:04:46;94788.72;;;-2.37;100.00
27429;BME280;14881;48.092;11.574;2023-01-20T04:07:18;94786.78;;;-2.30;100.00
27429;BME280;14881;48.092;11.574;2023-01-20T04:09:50;94793.94;;;-2.31;100.00
27429;BME280;14881;48.092;11.574;2023-01-20T04:12:19;94796.59;;;-2.31;100.00
27429;BME280;14881;48.092;11.574;2023-01-20T04:14:47;94790.03;;;-2.28;100.00
27429;BME280;14881;48.092;11.574;2023-01-20T04:17:15;94806.56;;;-2.26;100.00
27429;BME280;14881;48.092;11.574;2023-01-20T04:19:44;94791.88;;;-2.29;100.00
27429;BME280;14881;48.092;11.574;2023-01-20T04:22:18;94805.63;;;-2.20;100.00
27429;BME280;14881;48.092;11.574;2023-01-20T04:24:53;94803.91;;;-2.26;100.00
27429;BME280;14881;48.092;11.574;2023-01-20T04:27:23;94799.16;;;-2.24;100.00
27429;BME280;14881;48.092;11.574;2023-01-20T04:29:51;94804.34;;;-2.29;100.00
27429;BME280;14881;48.092;11.574;2023-01-20T04:32:19;94810.03;;;-2.26;100.00
27429;BME280;14881;48.092;11.574;2023-01-20T04:34:50;94815.09;;;-2.24;100.00
27429;BME280;14881;48.092;11.574;2023-01-20T04:37:22;94815.38;;;-2.26;100.00
27429;BME280;14881;48.092;11.574;2023-01-20T04:39:51;94815.09;;;-2.24;100.00
27429;BME280;14881;48.092;11.574;2023-01-20T04:42:19;94818.34;;;-2.22;100.00
27429;BME280;14881;48.092;11.574;2023-01-20T04:44:46;94823.13;;;-2.13;100.00
27429;BME280;14881;48.092;11.574;2023-01-20T04:47:14;94825.44;;;-2.16;100.00
27429;BME280;14881;48.092;11.574;2023-01-20T04:49:42;94828.69;;;-2.14;100.00
27429;BME280;14881;48.092;11.574;2023-01-20T04:52:11;94836.88;;;-2.16;100.00
27429;BME280;14881;48.092;11.574;2023-01-20T04:54:39;94840.59;;;-2.17;100.00
27429;BME280;14881;48.092;11.574;2023-01-20T04:57:06;94842.44;;;-2.17;100.00
27429;BME280;14881;48.092;11.574;2023-01-20T04:59:34;94839.63;;;-2.22;100.00
27429;BME280;14881;48.092;11.574;2023-01-20T05:02:02;94852.25;;;-2.18;100.00
27429;BME280;14881;48.092;11.574;2023-01-20T05:04:30;94844.94;;;-2.22;100.00
27429;BME280;14881;48.092;11.574;2023-01-20T05:06:57;94851.78;;;-2.26;100.00
27429;BME280;14881;48.092;11.574;2023-01-20T05:11:57;94861.84;;;-2.28;100.00
27429;BME280;14881;48.092;11.574;2023-01-20T05:14:24;94857.91;;;-2.26;100.00
27429;BME280;14881;48.092;11.574;2023-01-20T05:16:52;94859.66;;;-2.20;100.00
27429;BME280;14881;48.092;11.574;2023-01-20T05:19:20;94862.31;;;-2.20;100.00
27429;BME280;14881;48.092;11.574;2023-01-20T05:21:48;94866.72;;;-2.25;100.00
27429;BME280;14881;48.092;11.574;2023-01-20T05:24:19;94867.50;;;-2.25;100.00
27429;BME280;14881;48.092;11.574;2023-01-20T05:26:46;94872.72;;;-2.18;100.00
27429;BME280;14881;48.092;11.574;2023-01-20T05:29:15;94869.03;;;-2.17;100.00
27429;BME280;14881;48.092;11.574;2023-01-20T05:31:43;94870.50;;;-2.21;100.00
27429;BME280;14881;48.092;11.574;2023-01-20T05:34:11;94880.34;;;-2.22;100.00
27429;BME280;14881;48.092;11.574;2023-01-20T05:36:39;94882.41;;;-2.24;100.00
27429;BME280;14881;48.092;11.574;2023-01-20T05:39:06;94879.41;;;-2.27;100.00
27429;BME280;14881;48.092;11.574;2023-01-20T05:41:34;94881.72;;;-2.31;100.00
27429;BME280;14881;48.092;11.574;2023-01-20T05:44:02;94892.13;;;-2.29;100.00
27429;BME280;14881;48.092;11.574;2023-01-20T05:46:31;94892.34;;;-2.31;100.00
27429;BME280;14881;48.092;11.574;2023-01-20T05:48:59;94892.56;;;-2.32;100.00
27429;BME280;14881;48.092;11.574;2023-01-20T05:51:28;94889.31;;;-2.34;100.00
27429;BME280;14881;48.092;11.574;2023-01-20T05:53:57;94894.84;;;-2.36;100.00
27429;BME280;14881;48.092;11.574;2023-01-20T05:56:25;94896.84;;;-2.31;100.00
27429;BME280;14881;48.092;11.574;2023-01-20T05:58:53;94900.09;;;-2.29;100.00
27429;BME280;14881;48.092;11.574;2023-01-20T06:01:21;94901.94;;;-2.30;100.00
27429;BME280;14881;48.092;11.574;2023-01-20T06:03:50;94911.22;;;-2.21;100.00
27429;BME280;14881;48.092;11.574;2023-01-20T06:06:18;94912.16;;;-2.27;100.00
27429;BME280;14881;48.092;11.574;2023-01-20T06:08:46;94912.38;;;-2.28;100.00
27429;BME280;14881;48.092;11.574;2023-01-20T06:11:15;94924.97;;;-2.24;100.00
27429;BME280;14881;48.092;11.574;2023-01-20T06:13:45;94918.84;;;-2.24;100.00
27429;BME280;14881;48.092;11.574;2023-01-20T06:16:13;94918.38;;;-2.21;100.00
27429;BME280;14881;48.092;11.574;2023-01-20T06:18:42;94930.28;;;-2.24;100.00
27429;BME280;14881;48.092;11.574;2023-01-20T06:21:11;94924.75;;;-2.22;100.00
27429;BME280;14881;48.092;11.574;2023-01-20T06:23:39;94933.19;;;-2.25;100.00
27429;BME280;14881;48.092;11.574;2023-01-20T06:26:10;94933.41;;;-2.27;100.00
27429;BME280;14881;48.092;11.574;2023-01-20T06:28:38;94934.34;;;-2.21;100.00
27429;BME280;14881;48.092;11.574;2023-01-20T06:31:08;94937.94;;;-2.27;100.00
27429;BME280;14881;48.092;11.574;2023-01-20T06:33:36;94945.75;;;-2.32;100.00
27429;BME280;14881;48.092;11.574;2023-01-20T06:36:04;94935.34;;;-2.34;100.00
27429;BME280;14881;48.092;11.574;2023-01-20T06:38:34;94950.47;;;-2.34;100.00
27429;BME280;14881;48.092;11.574;2023-01-20T06:41:03;94956.63;;;-2.34;100.00
27429;BME280;14881;48.092;11.574;2023-01-20T06:43:33;94952.47;;;-2.30;100.00
27429;BME280;14881;48.092;11.574;2023-01-20T06:46:02;94962.31;;;-2.30;100.00
27429;BME280;14881;48.092;11.574;2023-01-20T06:48:30;94963.50;;;-2.26;100.00
27429;BME280;14881;48.092;11.574;2023-01-20T06:51:02;94963.94;;;-2.29;100.00
27429;BME280;14881;48.092;11.574;2023-01-20T06:53:30;94964.38;;;-2.32;100.00
27429;BME280;14881;48.092;11.574;2023-01-20T06:56:00;94968.22;;;-2.28;100.00
27429;BME280;14881;48.092;11.574;2023-01-20T06:58:29;94972.72;;;-2.29;100.00
27429;BME280;14881;48.092;11.574;2023-01-20T07:01:04;94973.38;;;-2.33;100.00
27429;BME280;14881;48.092;11.574;2023-01-20T07:03:34;94972.19;;;-2.37;100.00
27429;BME280;14881;48.092;11.574;2023-01-20T07:06:03;94973.81;;;-2.36;100.00
27429;BME280;14881;48.092;11.574;2023-01-20T07:08:31;94977.22;;;-2.29;100.00
27429;BME280;14881;48.092;11.574;2023-01-20T07:11:00;94989.34;;;-2.33;100.00
27429;BME280;14881;48.092;11.574;2023-01-20T07:13:30;94990.75;;;-2.31;100.00
27429;BME280;14881;48.092;11.574;2023-01-20T07:15:58;94994.22;;;-2.30;100.00
27429;BME280;14881;48.092;11.574;2023-01-20T07:18:26;94987.66;;;-2.28;100.00
27429;BME280;14881;48.092;11.574;2023-01-20T07:20:54;94995.41;;;-2.26;100.00
27429;BME280;14881;48.092;11.574;2023-01-20T07:23:22;94998.78;;;-2.19;100.00
27429;BME280;14881;48.092;11.574;2023-01-20T07:25:56;95006.75;;;-2.19;100.00
27429;BME280;14881;48.092;11.574;2023-01-20T07:28:25;95005.50;;;-2.17;100.00
27429;BME280;14881;48.092;11.574;2023-01-20T07:30:53;95011.44;;;-2.15;100.00
27429;BME280;14881;48.092;11.574;2023-01-20T07:33:21;95011.06;;;-2.18;100.00
27429;BME280;14881;48.092;11.574;2023-01-20T07:35:52;95023.69;;;-2.14;100.00
27429;BME280;14881;48.092;11.574;2023-01-20T07:38:20;95024.41;;;-2.06;100.00
27429;BME280;14881;48.092;11.574;2023-01-20T07:40:48;95031.00;;;-2.09;100.00
27429;BME280;14881;48.092;11.574;2023-01-20T07:43:15;95035.63;;;-2.04;100.00
27429;BME280;14881;48.092;11.574;2023-01-20T07:45:44;95037.41;;;-1.98;100.00
27429;BME280;14881;48.092;11.574;2023-01-20T07:48:12;95037.69;;;-1.88;100.00
27429;BME280;14881;48.092;11.574;2023-01-20T07:50:40;95042.78;;;-1.87;100.00
27429;BME280;14881;48.092;11.574;2023-01-20T07:53:08;95042.34;;;-1.84;100.00
27429;BME280;14881;48.092;11.574;2023-01-20T07:55:36;95049.16;;;-1.88;100.00
27429;BME280;14881;48.092;11.574;2023-01-20T07:58:04;95050.72;;;-1.80;100.00
27429;BME280;14881;48.092;11.574;2023-01-20T08:00:31;95046.88;;;-1.84;100.00
27429;BME280;14881;48.092;11.574;2023-01-20T08:03:00;95059.13;;;-1.83;100.00
27429;BME280;14881;48.092;11.574;2023-01-20T08:05:31;95057.81;;;-1.92;100.00
27429;BME280;14881;48.092;11.574;2023-01-20T08:07:58;95053.53;;;-1.93;100.00
27429;BME280;14881;48.092;11.574;2023-01-20T08:10:26;95050.72;;;-1.80;100.00
27429;BME280;14881;48.092;11.574;2023-01-20T08:12:54;95062.53;;;-1.76;100.00
27429;BME280;14881;48.092;11.574;2023-01-20T08:15:22;95057.34;;;-1.71;100.00
27429;BME280;14881;48.092;11.574;2023-01-20T08:17:52;95061.03;;;-1.72;100.00
27429;BME280;14881;48.092;11.574;2023-01-20T08:20:21;95064.94;;;-1.56;100.00
27429;BME280;14881;48.092;11.574;2023-01-20T08:22:49;95059.16;;;-1.53;100.00
27429;BME280;14881;48.092;11.574;2023-01-20T08:25:17;95075.50;;;-1.50;100.00
27429;BME280;14881;48.092;11.574;2023-01-20T08:27:46;95071.56;;;-1.47;100.00
27429;BME280;14881;48.092;11.574;2023-01-20T08:30:14;95074.28;;;-1.35;100.00
27429;BME280;14881;48.092;11.574;2023-01-20T08:32:42;95076.75;;;-1.52;100.00
27429;BME280;14881;48.092;11.574;2023-01-20T08:35:10;95075.41;;;-1.43;100.00
27429;BME280;14881;48.092;11.574;2023-01-20T08:37:39;95079.38;;;-1.34;100.00
27429;BME280;14881;48.092;11.574;2023-01-20T08:40:09;95080.06;;;-1.38;100.00
27429;BME280;14881;48.092;11.574;2023-01-20T08:42:37;95077.34;;;-1.50;100.00
27429;BME280;14881;48.092;11.574;2023-01-20T08:45:07;95077.72;;;-1.47;100.00
27429;BME280;14881;48.092;11.574;2023-01-20T08:47:35;95092.28;;;-1.19;100.00
27429;BME280;14881;48.092;11.574;2023-01-20T08:50:06;95100.94;;;-1.06;100.00
27429;BME280;14881;48.092;11.574;2023-01-20T08:52:34;95087.59;;;-1.06;100.00
27429;BME280;14881;48.092;11.574;2023-01-20T08:55:03;95098.28;;;-0.94;100.00
27429;BME280;14881;48.092;11.574;2023-01-20T08:57:31;95105.47;;;-0.94;100.00
27429;BME280;14881;48.092;11.574;2023-01-20T08:59:59;95108.22;;;-1.01;100.00
27429;BME280;14881;48.092;11.574;2023-01-20T09:02:27;95106.81;;;-1.03;100.00
27429;BME280;14881;48.092;11.574;2023-01-20T09:04:55;95105.72;;;-0.84;100.00
27429;BME280;14881;48.092;11.574;2023-01-20T09:07:22;95112.91;;;-0.85;100.00
27429;BME280;14881;48.092;11.574;2023-01-20T09:09:50;95110.94;;;-0.89;100.00
27429;BME280;14881;48.092;11.574;2023-01-20T09:12:19;95111.53;;;-0.87;100.00
27429;BME280;14881;48.092;11.574;2023-01-20T09:14:47;95117.09;;;-0.77;100.00
27429;BME280;14881;48.092;11.574;2023-01-20T09:17:15;95126.75;;;-0.64;100.00
27429;BME280;14881;48.092;11.574;2023-01-20T09:19:42;95125.03;;;-0.59;100.00
27429;BME280;14881;48.092;11.574;2023-01-20T09:22:10;95132.72;;;-0.92;100.00
27429;BME280;14881;48.092;11.574;2023-01-20T09:24:38;95129.47;;;-0.83;100.00
27429;BME280;14881;48.092;11.574;2023-01-20T09:27:06;95136.56;;;-0.77;100.00
27429;BME280;14881;48.092;11.574;2023-01-20T09:29:35;95128.22;;;-0.68;100.00
27429;BME280;14881;48.092;11.574;2023-01-20T09:32:03;95141.31;;;-0.90;100.00
27429;BME280;14881;48.092;11.574;2023-01-20T09:34:31;95139.69;;;-0.80;100.00
27429;BME280;14881;48.092;11.574;2023-01-20T09:37:00;95141.34;;;-0.67;100.00
27429;BME280;14881;48.092;11.574;2023-01-20T09:39:42;95138.22;;;-0.64;100.00
27429;BME280;14881;48.092;11.574;2023-01-20T09:42:33;95143.91;;;-0.72;100.00
27429;BME280;14881;48.092;11.574;2023-01-20T09:45:24;95139.63;;;-0.61;100.00
27429;BME280;14881;48.092;11.574;2023-01-20T09:48:04;95146.97;;;-0.33;100.00
27429;BME280;14881;48.092;11.574;2023-01-20T09:50:44;95149.56;;;-0.04;100.00
27429;BME280;14881;48.092;11.574;2023-01-20T09:53:41;95160.56;;;-0.12;100.00
27429;BME280;14881;48.092;11.574;2023-01-20T09:56:14;95150.38;;;-0.03;100.00
27429;BME280;14881;48.092;11.574;2023-01-20T09:58:49;95150.81;;;-0.06;100.00
27429;BME280;14881;48.092;11.574;2023-01-20T10:01:25;95151.75;;;-0.12;100.00
27429;BME280;14881;48.092;11.574;2023-01-20T10:04:03;95155.56;;;-0.08;100.00
27429;BME280;14881;48.092;11.574;2023-01-20T10:06:38;95146.41;;;-0.01;100.00
27429;BME280;14881;48.092;11.574;2023-01-20T10:09:14;95146.41;;;-0.24;100.00
27429;BME280;14881;48.092;11.574;2023-01-20T10:11:48;95150.31;;;-0.50;100.00
27429;BME280;14881;48.092;11.574;2023-01-20T10:14:21;95155.22;;;-0.35;100.00
27429;BME280;14881;48.092;11.574;2023-01-20T10:16:54;95151.50;;;-0.22;100.00
27429;BME280;14881;48.092;11.574;2023-01-20T10:19:34;95164.06;;;0.12;100.00
27429;BME280;14881;48.092;11.574;2023-01-20T10:22:11;95153.16;;;0.14;100.00
27429;BME280;14881;48.092;11.574;2023-01-20T10:24:45;95154.53;;;0.05;100.00
27429;BME280;14881;48.092;11.574;2023-01-20T10:27:18;95152.31;;;0.02;100.00
27429;BME280;14881;48.092;11.574;2023-01-20T10:29:50;95165.91;;;0.23;100.00
27429;BME280;14881;48.092;11.574;2023-01-20T10:32:27;95156.00;;;0.35;100.00
27429;BME280;14881;48.092;11.574;2023-01-20T10:35:02;95149.16;;;0.40;100.00
27429;BME280;14881;48.092;11.574;2023-01-20T10:37:35;95155.47;;;0.10;100.00
27429;BME280;14881;48.092;11.574;2023-01-20T10:40:09;95157.31;;;0.21;100.00
27429;BME280;14881;48.092;11.574;2023-01-20T10:42:43;95153.81;;;0.32;100.00
27429;BME280;14881;48.092;11.574;2023-01-20T10:45:22;95155.19;;;0.35;100.00
27429;BME280;14881;48.092;11.574;2023-01-20T10:48:02;95162.03;;;0.43;100.00
27429;BME280;14881;48.092;11.574;2023-01-20T10:50:40;95157.09;;;0.11;100.00
27429;BME280;14881;48.092;11.574;2023-01-20T10:53:31;95151.97;;;0.33;100.00
27429;BME280;14881;48.092;11.574;2023-01-20T10:56:20;95159.25;;;0.38;100.00
27429;BME280;14881;48.092;11.574;2023-01-20T10:58:50;95155.53;;;0.50;100.00
27429;BME280;14881;48.092;11.574;2023-01-20T11:01:18;95155.56;;;0.79;100.00
27429;BME280;14881;48.092;11.574;2023-01-20T11:03:48;95155.91;;;0.82;100.00
27429;BME280;14881;48.092;11.574;2023-01-20T11:06:19;95154.66;;;0.73;100.00
27429;BME280;14881;48.092;11.574;2023-01-20T11:08:47;95160.38;;;0.65;100.00
27429;BME280;14881;48.092;11.574;2023-01-20T11:11:17;95149.72;;;0.42;100.00
27429;BME280;14881;48.092;11.574;2023-01-20T11:13:46;95158.47;;;0.25;100.00
27429;BME280;14881;48.092;11.574;2023-01-20T11:16:21;95157.00;;;0.58;100.00
27429;BME280;14881;48.092;11.574;2023-01-20T11:18:59;95160.38;;;0.65;100.00
27429;BME280;14881;48.092;11.574;2023-01-20T11:21:29;95159.22;;;0.61;100.00
27429;BME280;14881;48.092;11.574;2023-01-20T11:23:59;95156.72;;;0.83;100.00
27429;BME280;14881;48.092;11.574;2023-01-20T11:26:29;95161.22;;;0.94;100.00
27429;BME280;14881;48.092;11.574;2023-01-20T11:29:00;95162.16;;;0.48;100.00
27429;BME280;14881;48.092;11.574;2023-01-20T11:31:37;95159.84;;;0.40;100.00
27429;BME280;14881;48.092;11.574;2023-01-20T11:34:21;95162.94;;;0.60;100.00
27429;BME280;14881;48.092;11.574;2023-01-20T11:36:51;95157.41;;;0.50;100.00
27429;BME280;14881;48.092;11.574;2023-01-20T11:39:56;95162.94;;;0.60;100.00
27429;BME280;14881;48.092;11.574;2023-01-20T11:42:27;95161.03;;;0.84;100.00
27429;BME280;14881;48.092;11.574;2023-01-20T11:44:57;95155.50;;;0.62;100.00
27429;BME280;14881;48.092;11.574;2023-01-20T11:47:58;95159.47;;;0.36;100.00
27429;BME280;14881;48.092;11.574;2023-01-20T11:50:30;95153.97;;;0.14;100.00
27429;BME280;14881;48.092;11.574;2023-01-20T11:53:16;95155.47;;;0.10;100.00
27429;BME280;14881;48.092;11.574;2023-01-20T11:55:48;95158.13;;;0.33;100.00
27429;BME280;14881;48.092;11.574;2023-01-20T11:58:18;95163.81;;;0.25;100.00
27429;BME280;14881;48.092;11.574;2023-01-20T12:00:48;95159.25;;;0.49;100.00
27429;BME280;14881;48.092;11.574;2023-01-20T12:03:39;95159.25;;;0.49;100.00
27429;BME280;14881;48.092;11.574;2023-01-20T12:06:16;95162.41;;;0.46;100.00
27429;BME280;14881;48.092;11.574;2023-01-20T12:08:49;95155.38;;;0.57;100.00
27429;BME280;14881;48.092;11.574;2023-01-20T12:11:23;95161.53;;;0.57;100.00
27429;BME280;14881;48.092;11.574;2023-01-20T12:14:03;95151.47;;;0.36;100.00
27429;BME280;14881;48.092;11.574;2023-01-20T12:16:54;95163.19;;;0.58;100.00
27429;BME280;14881;48.092;11.574;2023-01-20T12:19:24;95155.16;;;0.58;100.00
27429;BME280;14881;48.092;11.574;2023-01-20T12:21:59;95153.91;;;0.38;100.00
27429;BME280;14881;48.092;11.574;2023-01-20T12:24:32;95168.91;;;0.50;100.00
27429;BME280;14881;48.092;11.574;2023-01-20T12:27:22;95163.19;;;0.35;100.00
27429;BME280;14881;48.092;11.574;2023-01-20T12:29:55;95166.81;;;0.41;100.00
27429;BME280;14881;48.092;11.574;2023-01-20T12:32:25;95172.63;;;0.38;100.00
27429;BME280;14881;48.092;11.574;2023-01-20T12:34:54;95172.06;;;0.24;100.00
27429;BME280;14881;48.092;11.574;2023-01-20T12:37:27;95175.06;;;0.27;100.00
27429;BME280;14881;48.092;11.574;2023-01-20T12:40:12;95174.28;;;0.15;100.00
27429;BME280;14881;48.092;11.574;2023-01-20T12:43:01;95176.47;;;0.07;100.00
27429;BME280;14881;48.092;11.574;2023-01-20T12:45:42;95181.94;;;0.12;100.00
27429;BME280;14881;48.092;11.574;2023-01-20T12:48:30;95177.16;;;0.25;100.00
27429;BME280;14881;48.092;11.574;2023-01-20T12:51:13;95179.25;;;0.23;100.00
27429;BME280;14881;48.092;11.574;2023-01-20T12:54:09;95176.38;;;0.13;100.00
27429;BME280;14881;48.092;11.574;2023-01-20T12:56:46;95182.28;;;0.15;100.00
27429;BME280;14881;48.092;11.574;2023-01-20T12:59:30;95185.16;;;0.37;100.00
27429;BME280;14881;48.092;11.574;2023-01-20T13:02:17;95178.41;;;0.58;100.00
27429;BME280;14881;48.092;11.574;2023-01-20T13:05:16;95183.78;;;0.34;100.00
27429;BME280;14881;48.092;11.574;2023-01-20T13:07:51;95175.53;;;0.48;100.00
27429;BME280;14881;48.092;11.574;2023-01-20T13:13:32;95189.13;;;0.11;100.00
27429;BME280;14881;48.092;11.574;2023-01-20T13:16:30;95188.31;;;-0.01;100.00